sensor_id;sensor_type;location;lat;lon;timestamp;P1;durP1;ratioP1;P2;durP2;ratioP2
70150;SDS011;57517;43.562;19.540;2022-11-20T00:01:29;40.17;;;29.58;;
70150;SDS011;57517;43.562;19.540;2022-11-20T00:03:56;32.83;;;25.80;;
70150;SDS011;57517;43.562;19.540;2022-11-20T00:06:23;30.48;;;24.38;;
70150;SDS011;57517;43.562;19.540;2022-11-20T00:08:49;26.58;;;20.50;;
70150;SDS011;57517;43.562;19.540;2022-11-20T00:11:16;23.40;;;19.63;;
70150;SDS011;57517;43.562;19.540;2022-11-20T00:13:48;21.70;;;17.38;;
70150;SDS011;57517;43.562;19.540;2022-11-20T00:16:19;15.57;;;12.43;;
70150;SDS011;57517;43.562;19.540;2022-11-20T00:18:47;13.52;;;10.48;;
70150;SDS011;57517;43.562;19.540;2022-11-20T00:21:15;11.05;;;8.23;;
70150;SDS011;57517;43.562;19.540;2022-11-20T00:23:44;12.25;;;8.48;;
70150;SDS011;57517;43.562;19.540;2022-11-20T00:26:11;9.48;;;7.32;;
70150;SDS011;57517;43.562;19.540;2022-11-20T00:28:39;11.55;;;7.95;;
70150;SDS011;57517;43.562;19.540;2022-11-20T00:31:15;8.48;;;6.45;;
70150;SDS011;57517;43.562;19.540;2022-11-20T00:33:42;23.50;;;18.02;;
70150;SDS011;57517;43.562;19.540;2022-11-20T00:36:12;19.23;;;15.20;;
70150;SDS011;57517;43.562;19.540;2022-11-20T00:38:40;18.60;;;15.00;;
70150;SDS011;57517;43.562;19.540;2022-11-20T00:41:07;19.13;;;14.45;;
70150;SDS011;57517;43.562;19.540;2022-11-20T00:43:35;20.25;;;14.45;;
70150;SDS011;57517;43.562;19.540;2022-11-20T00:46:02;20.25;;;14.75;;
70150;SDS011;57517;43.562;19.540;2022-11-20T00:48:37;16.95;;;13.40;;
70150;SDS011;57517;43.562;19.540;2022-11-20T00:51:03;14.52;;;12.10;;
70150;SDS011;57517;43.562;19.540;2022-11-20T00:53:30;15.80;;;12.75;;
70150;SDS011;57517;43.562;19.540;2022-11-20T00:55:57;16.92;;;14.13;;
70150;SDS011;57517;43.562;19.540;2022-11-20T00:58:33;16.23;;;13.07;;
70150;SDS011;57517;43.562;19.540;2022-11-20T01:01:05;17.00;;;13.67;;
70150;SDS011;57517;43.562;19.540;2022-11-20T01:03:33;17.48;;;13.15;;
70150;SDS011;57517;43.562;19.540;2022-11-20T01:06:03;15.70;;;12.20;;
70150;SDS011;57517;43.562;19.540;2022-11-20T01:08:35;13.88;;;11.77;;
70150;SDS011;57517;43.562;19.540;2022-11-20T01:11:02;21.98;;;16.60;;
70150;SDS011;57517;43.562;19.540;2022-11-20T01:13:49;22.50;;;17.80;;
70150;SDS011;57517;43.562;19.540;2022-11-20T01:16:18;19.45;;;15.43;;
70150;SDS011;57517;43.562;19.540;2022-11-20T01:18:49;22.65;;;17.83;;
70150;SDS011;57517;43.562;19.540;2022-11-20T01:21:18;22.17;;;16.92;;
70150;SDS011;57517;43.562;19.540;2022-11-20T01:23:45;26.60;;;19.25;;
70150;SDS011;57517;43.562;19.540;2022-11-20T01:26:13;22.08;;;16.58;;
70150;SDS011;57517;43.562;19.540;2022-11-20T01:28:41;20.65;;;16.92;;
70150;SDS011;57517;43.562;19.540;2022-11-20T01:31:15;21.10;;;15.15;;
70150;SDS011;57517;43.562;19.540;2022-11-20T01:33:43;18.33;;;15.43;;
70150;SDS011;57517;43.562;19.540;2022-11-20T01:36:10;19.27;;;15.05;;
70150;SDS011;57517;43.562;19.540;2022-11-20T01:38:37;24.38;;;18.67;;
70150;SDS011;57517;43.562;19.540;2022-11-20T01:41:03;27.23;;;21.15;;
70150;SDS011;57517;43.562;19.540;2022-11-20T01:43:30;31.02;;;24.92;;
70150;SDS011;57517;43.562;19.540;2022-11-20T01:45:58;27.15;;;22.00;;
70150;SDS011;57517;43.562;19.540;2022-11-20T01:48:28;20.42;;;16.48;;
70150;SDS011;57517;43.562;19.540;2022-11-20T01:51:06;18.33;;;15.48;;
70150;SDS011;57517;43.562;19.540;2022-11-20T01:53:45;20.73;;;16.33;;
70150;SDS011;57517;43.562;19.540;2022-11-20T01:56:12;19.73;;;15.63;;
70150;SDS011;57517;43.562;19.540;2022-11-20T01:58:41;21.52;;;16.75;;
70150;SDS011;57517;43.562;19.540;2022-11-20T02:01:12;20.98;;;16.13;;
70150;SDS011;57517;43.562;19.540;2022-11-20T02:03:39;20.63;;;17.05;;
70150;SDS011;57517;43.562;19.540;2022-11-20T02:08:42;21.50;;;17.42;;
70150;SDS011;57517;43.562;19.540;2022-11-20T02:11:08;23.20;;;16.65;;
70150;SDS011;57517;43.562;19.540;2022-11-20T02:13:34;19.75;;;15.93;;
70150;SDS011;57517;43.562;19.540;2022-11-20T02:16:10;19.67;;;16.00;;
70150;SDS011;57517;43.562;19.540;2022-11-20T02:18:39;21.77;;;17.35;;
70150;SDS011;57517;43.562;19.540;2022-11-20T02:21:49;20.38;;;16.90;;
70150;SDS011;57517;43.562;19.540;2022-11-20T02:24:19;21.48;;;18.08;;
70150;SDS011;57517;43.562;19.540;2022-11-20T02:26:48;26.42;;;22.38;;
70150;SDS011;57517;43.562;19.540;2022-11-20T02:29:23;26.00;;;20.20;;
70150;SDS011;57517;43.562;19.540;2022-11-20T02:31:52;26.60;;;21.35;;
70150;SDS011;57517;43.562;19.540;2022-11-20T02:34:21;26.05;;;21.23;;
70150;SDS011;57517;43.562;19.540;2022-11-20T02:36:47;27.90;;;21.23;;
70150;SDS011;57517;43.562;19.540;2022-11-20T02:39:16;24.40;;;20.15;;
70150;SDS011;57517;43.562;19.540;2022-11-20T02:41:42;22.75;;;17.13;;
70150;SDS011;57517;43.562;19.540;2022-11-20T02:44:08;23.38;;;17.23;;
70150;SDS011;57517;43.562;19.540;2022-11-20T02:46:34;24.52;;;19.33;;
70150;SDS011;57517;43.562;19.540;2022-11-20T02:49:00;28.15;;;20.27;;
70150;SDS011;57517;43.562;19.540;2022-11-20T02:51:30;23.05;;;18.40;;
70150;SDS011;57517;43.562;19.540;2022-11-20T02:53:57;23.65;;;18.15;;
70150;SDS011;57517;43.562;19.540;2022-11-20T02:56:23;34.67;;;24.35;;
70150;SDS011;57517;43.562;19.540;2022-11-20T02:58:50;26.92;;;19.48;;
70150;SDS011;57517;43.562;19.540;2022-11-20T03:01:15;18.40;;;14.30;;
70150;SDS011;57517;43.562;19.540;2022-11-20T03:03:41;14.60;;;11.85;;
70150;SDS011;57517;43.562;19.540;2022-11-20T03:06:07;22.33;;;16.27;;
70150;SDS011;57517;43.562;19.540;2022-11-20T03:08:33;22.20;;;16.58;;
70150;SDS011;57517;43.562;19.540;2022-11-20T03:11:04;18.60;;;14.18;;
70150;SDS011;57517;43.562;19.540;2022-11-20T03:13:31;18.95;;;12.90;;
70150;SDS011;57517;43.562;19.540;2022-11-20T03:15:57;16.98;;;13.30;;
70150;SDS011;57517;43.562;19.540;2022-11-20T03:18:23;19.38;;;13.75;;
70150;SDS011;57517;43.562;19.540;2022-11-20T03:20:48;16.00;;;12.00;;
70150;SDS011;57517;43.562;19.540;2022-11-20T03:23:14;17.70;;;13.25;;
70150;SDS011;57517;43.562;19.540;2022-11-20T03:25:40;16.48;;;13.00;;
70150;SDS011;57517;43.562;19.540;2022-11-20T03:28:06;20.80;;;14.45;;
70150;SDS011;57517;43.562;19.540;2022-11-20T03:30:31;20.70;;;15.82;;
70150;SDS011;57517;43.562;19.540;2022-11-20T03:32:57;22.30;;;15.25;;
70150;SDS011;57517;43.562;19.540;2022-11-20T03:35:23;18.15;;;13.13;;
70150;SDS011;57517;43.562;19.540;2022-11-20T03:37:49;16.05;;;12.80;;
70150;SDS011;57517;43.562;19.540;2022-11-20T03:40:14;18.13;;;12.00;;
70150;SDS011;57517;43.562;19.540;2022-11-20T03:42:40;16.20;;;13.00;;
70150;SDS011;57517;43.562;19.540;2022-11-20T03:45:13;17.35;;;12.98;;
70150;SDS011;57517;43.562;19.540;2022-11-20T03:47:40;17.90;;;14.07;;
70150;SDS011;57517;43.562;19.540;2022-11-20T03:50:06;19.58;;;14.65;;
70150;SDS011;57517;43.562;19.540;2022-11-20T03:52:33;20.67;;;15.18;;
70150;SDS011;57517;43.562;19.540;2022-11-20T03:54:58;18.80;;;14.63;;
70150;SDS011;57517;43.562;19.540;2022-11-20T03:57:24;22.77;;;16.98;;
70150;SDS011;57517;43.562;19.540;2022-11-20T03:59:50;25.90;;;18.88;;
70150;SDS011;57517;43.562;19.540;2022-11-20T04:02:16;25.23;;;18.55;;
70150;SDS011;57517;43.562;19.540;2022-11-20T04:04:41;25.20;;;17.98;;
70150;SDS011;57517;43.562;19.540;2022-11-20T04:07:07;26.48;;;18.77;;
70150;SDS011;57517;43.562;19.540;2022-11-20T04:09:33;27.95;;;18.17;;
70150;SDS011;57517;43.562;19.540;2022-11-20T04:11:59;19.15;;;13.85;;
70150;SDS011;57517;43.562;19.540;2022-11-20T04:14:25;17.10;;;12.40;;
70150;SDS011;57517;43.562;19.540;2022-11-20T04:16:50;15.00;;;11.40;;
70150;SDS011;57517;43.562;19.540;2022-11-20T04:19:16;16.63;;;11.27;;
70150;SDS011;57517;43.562;19.540;2022-11-20T04:21:43;14.02;;;11.48;;
70150;SDS011;57517;43.562;19.540;2022-11-20T04:24:09;12.85;;;11.43;;
70150;SDS011;57517;43.562;19.540;2022-11-20T04:26:36;13.95;;;11.52;;
70150;SDS011;57517;43.562;19.540;2022-11-20T04:29:02;14.27;;;11.00;;
70150;SDS011;57517;43.562;19.540;2022-11-20T04:31:29;15.70;;;12.05;;
70150;SDS011;57517;43.562;19.540;2022-11-20T04:34:02;17.67;;;12.15;;
70150;SDS011;57517;43.562;19.540;2022-11-20T04:36:30;16.80;;;12.00;;
70150;SDS011;57517;43.562;19.540;2022-11-20T04:39:00;18.40;;;11.88;;
70150;SDS011;57517;43.562;19.540;2022-11-20T04:41:29;17.95;;;11.27;;
70150;SDS011;57517;43.562;19.540;2022-11-20T04:43:58;13.57;;;10.18;;
70150;SDS011;57517;43.562;19.540;2022-11-20T04:46:28;15.20;;;10.98;;
70150;SDS011;57517;43.562;19.540;2022-11-20T04:48:56;15.23;;;11.50;;
70150;SDS011;57517;43.562;19.540;2022-11-20T04:51:22;19.05;;;12.02;;
70150;SDS011;57517;43.562;19.540;2022-11-20T04:53:48;15.68;;;12.10;;
70150;SDS011;57517;43.562;19.540;2022-11-20T04:56:14;17.00;;;11.95;;
70150;SDS011;57517;43.562;19.540;2022-11-20T04:58:40;18.55;;;13.50;;
70150;SDS011;57517;43.562;19.540;2022-11-20T05:01:07;16.85;;;13.55;;
70150;SDS011;57517;43.562;19.540;2022-11-20T05:03:38;16.25;;;12.35;;
70150;SDS011;57517;43.562;19.540;2022-11-20T05:06:05;15.68;;;11.98;;
70150;SDS011;57517;43.562;19.540;2022-11-20T05:08:32;15.57;;;10.93;;
70150;SDS011;57517;43.562;19.540;2022-11-20T05:11:05;17.67;;;11.63;;
70150;SDS011;57517;43.562;19.540;2022-11-20T05:13:32;14.07;;;10.27;;
70150;SDS011;57517;43.562;19.540;2022-11-20T05:16:05;13.70;;;10.40;;
70150;SDS011;57517;43.562;19.540;2022-11-20T05:18:36;16.67;;;10.32;;
70150;SDS011;57517;43.562;19.540;2022-11-20T05:21:02;12.55;;;9.55;;
70150;SDS011;57517;43.562;19.540;2022-11-20T05:23:29;10.75;;;7.53;;
70150;SDS011;57517;43.562;19.540;2022-11-20T05:25:57;12.30;;;8.45;;
70150;SDS011;57517;43.562;19.540;2022-11-20T05:28:23;11.65;;;8.55;;
70150;SDS011;57517;43.562;19.540;2022-11-20T05:30:50;11.30;;;8.68;;
70150;SDS011;57517;43.562;19.540;2022-11-20T05:33:16;11.43;;;8.57;;
70150;SDS011;57517;43.562;19.540;2022-11-20T05:35:43;11.18;;;8.30;;
70150;SDS011;57517;43.562;19.540;2022-11-20T05:38:09;11.43;;;8.35;;
70150;SDS011;57517;43.562;19.540;2022-11-20T05:40:34;14.35;;;11.18;;
70150;SDS011;57517;43.562;19.540;2022-11-20T05:43:00;15.18;;;10.93;;
70150;SDS011;57517;43.562;19.540;2022-11-20T05:45:26;15.25;;;12.70;;
70150;SDS011;57517;43.562;19.540;2022-11-20T05:47:52;15.57;;;12.20;;
70150;SDS011;57517;43.562;19.540;2022-11-20T05:50:19;19.90;;;11.60;;
70150;SDS011;57517;43.562;19.540;2022-11-20T05:52:45;17.15;;;13.13;;
70150;SDS011;57517;43.562;19.540;2022-11-20T05:55:11;17.48;;;12.50;;
70150;SDS011;57517;43.562;19.540;2022-11-20T05:57:37;15.40;;;11.95;;
70150;SDS011;57517;43.562;19.540;2022-11-20T06:00:03;17.35;;;12.68;;
70150;SDS011;57517;43.562;19.540;2022-11-20T06:02:29;21.10;;;15.25;;
70150;SDS011;57517;43.562;19.540;2022-11-20T06:04:55;19.38;;;15.80;;
70150;SDS011;57517;43.562;19.540;2022-11-20T06:07:20;18.42;;;13.63;;
70150;SDS011;57517;43.562;19.540;2022-11-20T06:09:46;17.23;;;13.10;;
70150;SDS011;57517;43.562;19.540;2022-11-20T06:12:12;19.52;;;13.90;;
70150;SDS011;57517;43.562;19.540;2022-11-20T06:14:38;23.02;;;16.50;;
70150;SDS011;57517;43.562;19.540;2022-11-20T06:17:03;18.83;;;15.13;;
70150;SDS011;57517;43.562;19.540;2022-11-20T06:19:29;20.38;;;14.25;;
70150;SDS011;57517;43.562;19.540;2022-11-20T06:21:55;18.63;;;13.25;;
70150;SDS011;57517;43.562;19.540;2022-11-20T06:24:21;19.23;;;12.25;;
70150;SDS011;57517;43.562;19.540;2022-11-20T06:26:47;23.48;;;16.65;;
70150;SDS011;57517;43.562;19.540;2022-11-20T06:29:13;22.30;;;16.23;;
70150;SDS011;57517;43.562;19.540;2022-11-20T06:31:39;25.10;;;17.35;;
70150;SDS011;57517;43.562;19.540;2022-11-20T06:34:07;28.67;;;19.63;;
70150;SDS011;57517;43.562;19.540;2022-11-20T06:36:33;27.27;;;20.58;;
70150;SDS011;57517;43.562;19.540;2022-11-20T06:38:59;21.95;;;17.83;;
70150;SDS011;57517;43.562;19.540;2022-11-20T06:41:25;31.42;;;21.02;;
70150;SDS011;57517;43.562;19.540;2022-11-20T06:43:52;25.23;;;16.52;;
70150;SDS011;57517;43.562;19.540;2022-11-20T06:46:19;19.63;;;14.23;;
70150;SDS011;57517;43.562;19.540;2022-11-20T06:48:45;18.75;;;13.35;;
70150;SDS011;57517;43.562;19.540;2022-11-20T06:51:11;20.45;;;13.45;;
70150;SDS011;57517;43.562;19.540;2022-11-20T06:53:37;23.83;;;16.85;;
70150;SDS011;57517;43.562;19.540;2022-11-20T06:56:03;29.65;;;20.40;;
70150;SDS011;57517;43.562;19.540;2022-11-20T06:58:30;32.13;;;22.42;;
70150;SDS011;57517;43.562;19.540;2022-11-20T07:01:07;36.47;;;26.60;;
70150;SDS011;57517;43.562;19.540;2022-11-20T07:03:37;40.33;;;28.42;;
70150;SDS011;57517;43.562;19.540;2022-11-20T07:06:04;35.88;;;24.92;;
70150;SDS011;57517;43.562;19.540;2022-11-20T07:08:30;203.65;;;141.60;;
70150;SDS011;57517;43.562;19.540;2022-11-20T07:10:57;121.15;;;80.88;;
70150;SDS011;57517;43.562;19.540;2022-11-20T07:13:27;118.80;;;78.85;;
70150;SDS011;57517;43.562;19.540;2022-11-20T07:15:53;78.43;;;51.85;;
70150;SDS011;57517;43.562;19.540;2022-11-20T07:18:19;234.20;;;157.30;;
70150;SDS011;57517;43.562;19.540;2022-11-20T07:20:46;168.93;;;118.38;;
70150;SDS011;57517;43.562;19.540;2022-11-20T07:23:11;57.58;;;39.80;;
70150;SDS011;57517;43.562;19.540;2022-11-20T07:25:37;50.90;;;40.50;;
70150;SDS011;57517;43.562;19.540;2022-11-20T07:28:03;47.22;;;36.05;;
70150;SDS011;57517;43.562;19.540;2022-11-20T07:30:29;40.83;;;32.33;;
70150;SDS011;57517;43.562;19.540;2022-11-20T07:32:56;32.95;;;27.42;;
70150;SDS011;57517;43.562;19.540;2022-11-20T07:35:22;30.80;;;22.75;;
70150;SDS011;57517;43.562;19.540;2022-11-20T07:37:49;39.40;;;33.20;;
70150;SDS011;57517;43.562;19.540;2022-11-20T07:40:15;37.97;;;29.23;;
70150;SDS011;57517;43.562;19.540;2022-11-20T07:42:51;38.25;;;28.90;;
70150;SDS011;57517;43.562;19.540;2022-11-20T07:45:18;32.28;;;25.65;;
70150;SDS011;57517;43.562;19.540;2022-11-20T07:47:45;31.42;;;25.35;;
70150;SDS011;57517;43.562;19.540;2022-11-20T07:50:11;32.72;;;26.40;;
70150;SDS011;57517;43.562;19.540;2022-11-20T07:52:38;37.05;;;29.77;;
70150;SDS011;57517;43.562;19.540;2022-11-20T07:55:05;45.10;;;36.72;;
70150;SDS011;57517;43.562;19.540;2022-11-20T07:57:32;35.58;;;26.85;;
70150;SDS011;57517;43.562;19.540;2022-11-20T07:59:57;36.42;;;30.75;;
70150;SDS011;57517;43.562;19.540;2022-11-20T08:02:23;38.35;;;31.23;;
70150;SDS011;57517;43.562;19.540;2022-11-20T08:04:49;44.15;;;35.88;;
70150;SDS011;57517;43.562;19.540;2022-11-20T08:07:15;49.78;;;41.88;;
70150;SDS011;57517;43.562;19.540;2022-11-20T08:09:41;45.05;;;36.38;;
70150;SDS011;57517;43.562;19.540;2022-11-20T08:12:07;44.13;;;36.15;;
70150;SDS011;57517;43.562;19.540;2022-11-20T08:17:17;81.75;;;59.80;;
70150;SDS011;57517;43.562;19.540;2022-11-20T08:19:43;55.22;;;43.60;;
70150;SDS011;57517;43.562;19.540;2022-11-20T08:22:09;43.35;;;35.45;;
70150;SDS011;57517;43.562;19.540;2022-11-20T08:24:35;42.70;;;33.58;;
70150;SDS011;57517;43.562;19.540;2022-11-20T08:27:00;34.50;;;28.25;;
70150;SDS011;57517;43.562;19.540;2022-11-20T08:29:26;35.55;;;30.33;;
70150;SDS011;57517;43.562;19.540;2022-11-20T08:31:52;33.70;;;26.23;;
70150;SDS011;57517;43.562;19.540;2022-11-20T08:34:18;31.30;;;26.90;;
70150;SDS011;57517;43.562;19.540;2022-11-20T08:36:44;27.35;;;24.08;;
70150;SDS011;57517;43.562;19.540;2022-11-20T08:39:13;28.75;;;23.95;;
70150;SDS011;57517;43.562;19.540;2022-11-20T08:41:39;32.65;;;28.13;;
70150;SDS011;57517;43.562;19.540;2022-11-20T08:44:06;31.70;;;24.80;;
70150;SDS011;57517;43.562;19.540;2022-11-20T08:46:33;39.08;;;29.52;;
70150;SDS011;57517;43.562;19.540;2022-11-20T08:49:02;39.38;;;31.38;;
70150;SDS011;57517;43.562;19.540;2022-11-20T08:51:29;39.67;;;30.23;;
70150;SDS011;57517;43.562;19.540;2022-11-20T08:53:55;35.42;;;27.10;;
70150;SDS011;57517;43.562;19.540;2022-11-20T08:56:20;33.55;;;27.30;;
70150;SDS011;57517;43.562;19.540;2022-11-20T08:58:46;43.85;;;34.42;;
70150;SDS011;57517;43.562;19.540;2022-11-20T09:01:12;38.22;;;30.60;;
70150;SDS011;57517;43.562;19.540;2022-11-20T09:03:38;40.53;;;32.55;;
70150;SDS011;57517;43.562;19.540;2022-11-20T09:06:05;34.72;;;29.35;;
70150;SDS011;57517;43.562;19.540;2022-11-20T09:08:32;36.60;;;28.98;;
70150;SDS011;57517;43.562;19.540;2022-11-20T09:10:58;37.28;;;30.05;;
70150;SDS011;57517;43.562;19.540;2022-11-20T09:13:25;41.42;;;30.55;;
70150;SDS011;57517;43.562;19.540;2022-11-20T09:15:55;42.20;;;34.38;;
70150;SDS011;57517;43.562;19.540;2022-11-20T09:18:23;40.05;;;31.25;;
70150;SDS011;57517;43.562;19.540;2022-11-20T09:20:49;49.33;;;41.13;;
70150;SDS011;57517;43.562;19.540;2022-11-20T09:23:16;63.42;;;51.95;;
70150;SDS011;57517;43.562;19.540;2022-11-20T09:25:42;52.78;;;41.17;;
70150;SDS011;57517;43.562;19.540;2022-11-20T09:28:08;55.55;;;43.00;;
70150;SDS011;57517;43.562;19.540;2022-11-20T09:30:34;58.58;;;47.00;;
70150;SDS011;57517;43.562;19.540;2022-11-20T09:33:01;52.63;;;41.80;;
70150;SDS011;57517;43.562;19.540;2022-11-20T09:35:28;48.33;;;35.05;;
70150;SDS011;57517;43.562;19.540;2022-11-20T09:37:54;50.28;;;40.63;;
70150;SDS011;57517;43.562;19.540;2022-11-20T09:40:24;47.72;;;39.42;;
70150;SDS011;57517;43.562;19.540;2022-11-20T09:56:33;41.90;;;31.45;;
70150;SDS011;57517;43.562;19.540;2022-11-20T09:59:03;38.22;;;31.13;;
70150;SDS011;57517;43.562;19.540;2022-11-20T10:01:35;37.92;;;30.10;;
70150;SDS011;57517;43.562;19.540;2022-11-20T10:04:10;38.28;;;32.33;;
70150;SDS011;57517;43.562;19.540;2022-11-20T10:06:47;38.10;;;32.35;;
70150;SDS011;57517;43.562;19.540;2022-11-20T10:09:18;32.70;;;27.50;;
70150;SDS011;57517;43.562;19.540;2022-11-20T10:11:58;37.65;;;31.15;;
70150;SDS011;57517;43.562;19.540;2022-11-20T10:14:51;34.92;;;27.02;;
70150;SDS011;57517;43.562;19.540;2022-11-20T10:25:55;46.28;;;37.05;;
70150;SDS011;57517;43.562;19.540;2022-11-20T10:28:41;46.90;;;38.00;;
70150;SDS011;57517;43.562;19.540;2022-11-20T10:31:28;56.17;;;47.83;;
70150;SDS011;57517;43.562;19.540;2022-11-20T10:33:55;52.22;;;40.22;;
70150;SDS011;57517;43.562;19.540;2022-11-20T10:36:26;38.58;;;31.75;;
70150;SDS011;57517;43.562;19.540;2022-11-20T10:39:03;48.28;;;36.55;;
70150;SDS011;57517;43.562;19.540;2022-11-20T10:41:40;36.78;;;30.77;;
70150;SDS011;57517;43.562;19.540;2022-11-20T10:47:24;36.25;;;27.83;;
70150;SDS011;57517;43.562;19.540;2022-11-20T10:49:53;34.28;;;28.92;;
70150;SDS011;57517;43.562;19.540;2022-11-20T10:55:01;44.42;;;37.45;;
70150;SDS011;57517;43.562;19.540;2022-11-20T10:57:49;52.88;;;45.88;;
70150;SDS011;57517;43.562;19.540;2022-11-20T11:00:33;44.72;;;35.58;;
70150;SDS011;57517;43.562;19.540;2022-11-20T11:02:59;36.88;;;31.88;;
70150;SDS011;57517;43.562;19.540;2022-11-20T11:05:33;42.92;;;37.88;;
70150;SDS011;57517;43.562;19.540;2022-11-20T11:08:12;42.97;;;35.78;;
70150;SDS011;57517;43.562;19.540;2022-11-20T11:11:02;38.50;;;31.23;;
70150;SDS011;57517;43.562;19.540;2022-11-20T11:13:47;34.20;;;28.48;;
70150;SDS011;57517;43.562;19.540;2022-11-20T11:16:23;31.70;;;25.73;;
70150;SDS011;57517;43.562;19.540;2022-11-20T11:18:50;40.05;;;34.22;;
70150;SDS011;57517;43.562;19.540;2022-11-20T11:21:23;43.35;;;36.40;;
70150;SDS011;57517;43.562;19.540;2022-11-20T11:24:00;39.50;;;33.95;;
70150;SDS011;57517;43.562;19.540;2022-11-20T11:26:27;36.50;;;29.58;;
70150;SDS011;57517;43.562;19.540;2022-11-20T11:29:00;35.50;;;29.70;;
70150;SDS011;57517;43.562;19.540;2022-11-20T11:31:32;37.88;;;32.55;;
70150;SDS011;57517;43.562;19.540;2022-11-20T11:36:32;46.00;;;37.10;;
70150;SDS011;57517;43.562;19.540;2022-11-20T11:39:00;39.92;;;32.80;;
70150;SDS011;57517;43.562;19.540;2022-11-20T11:41:28;42.10;;;36.65;;
70150;SDS011;57517;43.562;19.540;2022-11-20T11:47:06;51.67;;;43.22;;
70150;SDS011;57517;43.562;19.540;2022-11-20T11:55:29;41.97;;;34.03;;
70150;SDS011;57517;43.562;19.540;2022-11-20T11:58:14;47.33;;;38.95;;
70150;SDS011;57517;43.562;19.540;2022-11-20T12:00:50;46.97;;;38.47;;
70150;SDS011;57517;43.562;19.540;2022-11-20T12:03:27;66.30;;;54.97;;
70150;SDS011;57517;43.562;19.540;2022-11-20T12:06:00;72.00;;;59.28;;
70150;SDS011;57517;43.562;19.540;2022-11-20T12:08:32;57.53;;;48.65;;
70150;SDS011;57517;43.562;19.540;2022-11-20T12:16:12;47.30;;;40.92;;
70150;SDS011;57517;43.562;19.540;2022-11-20T12:18:40;50.28;;;40.97;;
70150;SDS011;57517;43.562;19.540;2022-11-20T12:21:12;45.42;;;39.15;;
70150;SDS011;57517;43.562;19.540;2022-11-20T12:30:19;41.47;;;33.33;;
70150;SDS011;57517;43.562;19.540;2022-11-20T12:35:42;38.28;;;31.92;;
70150;SDS011;57517;43.562;19.540;2022-11-20T12:38:28;47.83;;;38.60;;
70150;SDS011;57517;43.562;19.540;2022-11-20T12:50:08;33.50;;;27.52;;
70150;SDS011;57517;43.562;19.540;2022-11-20T13:01:00;53.15;;;41.33;;
70150;SDS011;57517;43.562;19.540;2022-11-20T13:07:12;16.63;;;13.80;;
70150;SDS011;57517;43.562;19.540;2022-11-20T13:09:43;19.38;;;15.63;;
70150;SDS011;57517;43.562;19.540;2022-11-20T13:14:54;14.85;;;12.15;;
70150;SDS011;57517;43.562;19.540;2022-11-20T13:20:24;13.55;;;11.25;;
70150;SDS011;57517;43.562;19.540;2022-11-20T13:22:51;11.52;;;10.05;;
70150;SDS011;57517;43.562;19.540;2022-11-20T13:27:49;11.57;;;8.15;;
70150;SDS011;57517;43.562;19.540;2022-11-20T13:30:16;12.85;;;8.95;;
70150;SDS011;57517;43.562;19.540;2022-11-20T13:35:53;10.88;;;8.70;;
70150;SDS011;57517;43.562;19.540;2022-11-20T13:38:21;12.73;;;9.40;;
70150;SDS011;57517;43.562;19.540;2022-11-20T13:40:50;15.75;;;8.93;;
70150;SDS011;57517;43.562;19.540;2022-11-20T13:43:40;9.57;;;7.80;;
70150;SDS011;57517;43.562;19.540;2022-11-20T13:46:07;13.25;;;8.82;;
70150;SDS011;57517;43.562;19.540;2022-11-20T13:48:41;10.35;;;8.13;;
70150;SDS011;57517;43.562;19.540;2022-11-20T14:01:58;10.00;;;7.38;;
70150;SDS011;57517;43.562;19.540;2022-11-20T14:04:26;9.65;;;6.93;;
70150;SDS011;57517;43.562;19.540;2022-11-20T14:06:58;10.05;;;8.20;;
70150;SDS011;57517;43.562;19.540;2022-11-20T14:09:31;12.25;;;9.82;;
70150;SDS011;57517;43.562;19.540;2022-11-20T14:11:58;11.10;;;8.65;;
70150;SDS011;57517;43.562;19.540;2022-11-20T14:14:25;12.05;;;9.18;;
70150;SDS011;57517;43.562;19.540;2022-11-20T14:16:53;20.45;;;15.30;;
70150;SDS011;57517;43.562;19.540;2022-11-20T14:19:31;33.03;;;23.10;;
70150;SDS011;57517;43.562;19.540;2022-11-20T14:22:15;13.45;;;11.27;;
70150;SDS011;57517;43.562;19.540;2022-11-20T14:24:47;12.07;;;8.50;;
70150;SDS011;57517;43.562;19.540;2022-11-20T14:27:26;10.98;;;9.73;;
70150;SDS011;57517;43.562;19.540;2022-11-20T14:29:52;11.55;;;9.60;;
70150;SDS011;57517;43.562;19.540;2022-11-20T14:32:19;11.95;;;8.43;;
70150;SDS011;57517;43.562;19.540;2022-11-20T14:34:49;11.57;;;8.30;;
70150;SDS011;57517;43.562;19.540;2022-11-20T14:37:20;12.07;;;8.57;;
70150;SDS011;57517;43.562;19.540;2022-11-20T14:39:50;13.68;;;9.63;;
70150;SDS011;57517;43.562;19.540;2022-11-20T14:42:19;11.80;;;8.00;;
70150;SDS011;57517;43.562;19.540;2022-11-20T14:44:47;9.70;;;6.93;;
70150;SDS011;57517;43.562;19.540;2022-11-20T14:47:21;8.82;;;5.70;;
70150;SDS011;57517;43.562;19.540;2022-11-20T14:49:50;7.03;;;5.65;;
70150;SDS011;57517;43.562;19.540;2022-11-20T14:52:22;10.00;;;8.00;;
70150;SDS011;57517;43.562;19.540;2022-11-20T14:54:53;7.00;;;5.78;;
70150;SDS011;57517;43.562;19.540;2022-11-20T14:59:48;11.95;;;8.93;;
70150;SDS011;57517;43.562;19.540;2022-11-20T15:02:14;10.75;;;8.27;;
70150;SDS011;57517;43.562;19.540;2022-11-20T15:07:23;9.43;;;7.80;;
70150;SDS011;57517;43.562;19.540;2022-11-20T15:10:12;12.60;;;8.43;;
70150;SDS011;57517;43.562;19.540;2022-11-20T15:12:38;12.82;;;9.68;;
70150;SDS011;57517;43.562;19.540;2022-11-20T15:15:12;13.38;;;8.98;;
70150;SDS011;57517;43.562;19.540;2022-11-20T15:17:44;10.30;;;7.45;;
70150;SDS011;57517;43.562;19.540;2022-11-20T15:20:11;9.48;;;7.50;;
70150;SDS011;57517;43.562;19.540;2022-11-20T15:22:41;7.55;;;5.57;;
70150;SDS011;57517;43.562;19.540;2022-11-20T15:25:13;7.88;;;5.40;;
70150;SDS011;57517;43.562;19.540;2022-11-20T15:27:41;8.20;;;5.30;;
70150;SDS011;57517;43.562;19.540;2022-11-20T15:30:12;8.10;;;6.13;;
70150;SDS011;57517;43.562;19.540;2022-11-20T15:32:42;11.50;;;8.73;;
70150;SDS011;57517;43.562;19.540;2022-11-20T15:35:09;10.23;;;6.75;;
70150;SDS011;57517;43.562;19.540;2022-11-20T15:37:35;6.95;;;5.32;;
70150;SDS011;57517;43.562;19.540;2022-11-20T15:40:02;7.68;;;5.78;;
70150;SDS011;57517;43.562;19.540;2022-11-20T15:42:29;6.80;;;4.80;;
70150;SDS011;57517;43.562;19.540;2022-11-20T15:44:55;9.02;;;6.85;;
70150;SDS011;57517;43.562;19.540;2022-11-20T15:47:20;9.93;;;7.78;;
70150;SDS011;57517;43.562;19.540;2022-11-20T15:49:53;8.10;;;5.60;;
70150;SDS011;57517;43.562;19.540;2022-11-20T15:52:19;7.78;;;5.18;;
70150;SDS011;57517;43.562;19.540;2022-11-20T15:54:45;9.73;;;6.90;;
70150;SDS011;57517;43.562;19.540;2022-11-20T15:57:10;7.63;;;4.68;;
70150;SDS011;57517;43.562;19.540;2022-11-20T15:59:38;6.25;;;4.13;;
70150;SDS011;57517;43.562;19.540;2022-11-20T16:02:12;7.32;;;5.30;;
70150;SDS011;57517;43.562;19.540;2022-11-20T16:04:39;5.55;;;4.03;;
70150;SDS011;57517;43.562;19.540;2022-11-20T16:07:05;9.75;;;6.65;;
70150;SDS011;57517;43.562;19.540;2022-11-20T16:09:30;9.95;;;7.38;;